Time;durP1;ratioP1;P1;durP2;ratioP2;P2;SDS_P1;SDS_P2;PMS_P1;PMS_P2;Temp;Humidity;BMP_temperature;BMP_pressure;BME280_temperature;BME280_humidity;BME280_pressure;Samples;Min_cycle;Max_cycle;Signal;HPM_P1;HPM_P2
2024/03/01 00:01:42;;;;;;;17.48;9.25;;;9.50;99.90;;;;;;5020505;28;20188;-63
2024/03/01 00:04:07;;;;;;;14.00;9.20;;;9.60;99.90;;;;;;5020570;28;20658;-64
2024/03/01 00:06:33;;;;;;;14.98;8.88;;;9.60;99.90;;;;;;5020335;28;20275;-65
2024/03/01 00:08:59;;;;;;;15.52;9.18;;;9.60;99.90;;;;;;5020141;28;20219;-64
2024/03/01 00:11:25;;;;;;;14.10;8.85;;;9.50;99.90;;;;;;5020573;28;20267;-63
2024/03/01 00:13:51;;;;;;;18.20;8.63;;;9.50;99.90;;;;;;5035767;28;20184;-62
2024/03/01 00:16:16;;;;;;;13.27;8.75;;;9.50;99.90;;;;;;5020081;28;20184;-63
2024/03/01 00:18:43;;;;;;;17.08;9.40;;;9.50;99.90;;;;;;5034899;28;20192;-63
2024/03/01 00:21:15;;;;;;;15.50;8.95;;;9.50;99.90;;;;;;5020144;28;20183;-62
2024/03/01 00:23:42;;;;;;;16.77;8.40;;;9.60;99.90;;;;;;5020379;28;20196;-63
2024/03/01 00:26:08;;;;;;;14.32;8.95;;;9.60;99.90;;;;;;5019904;28;20210;-62
2024/03/01 00:28:34;;;;;;;12.52;8.07;;;9.60;99.90;;;;;;5020676;28;20211;-64
2024/03/01 00:31:01;;;;;;;13.60;8.90;;;9.60;99.90;;;;;;5020264;28;20557;-64
2024/03/01 00:33:27;;;;;;;13.70;9.05;;;9.60;99.90;;;;;;5034970;28;20781;-64
2024/03/01 00:35:53;;;;;;;14.15;8.40;;;9.60;99.90;;;;;;5020757;28;20196;-63
2024/03/01 00:38:19;;;;;;;13.40;9.00;;;9.70;99.90;;;;;;5023229;28;20191;-64
2024/03/01 00:40:44;;;;;;;15.55;8.55;;;9.70;99.90;;;;;;5024142;28;20218;-64
2024/03/01 00:43:11;;;;;;;16.70;8.98;;;9.70;99.90;;;;;;5023454;28;20302;-62
2024/03/01 00:45:37;;;;;;;14.50;8.40;;;9.70;99.90;;;;;;5023771;28;20562;-63
2024/03/01 00:48:13;;;;;;;14.40;8.77;;;9.70;99.90;;;;;;5023305;28;20333;-63
2024/03/01 00:50:40;;;;;;;12.52;8.60;;;9.70;99.90;;;;;;5023388;28;20187;-62
2024/03/01 00:53:07;;;;;;;13.38;8.43;;;9.70;99.90;;;;;;5023919;28;20176;-64
2024/03/01 00:55:36;;;;;;;12.20;8.82;;;9.70;99.90;;;;;;5023314;28;20270;-65
2024/03/01 00:58:03;;;;;;;14.35;9.55;;;9.70;99.90;;;;;;5023321;28;20214;-64
2024/03/01 01:00:28;;;;;;;12.70;8.75;;;9.70;99.90;;;;;;5023734;28;20217;-64
2024/03/01 01:02:54;;;;;;;14.82;9.10;;;9.70;99.90;;;;;;5009216;28;20337;-65
2024/03/01 01:05:22;;;;;;;13.05;8.68;;;9.70;99.90;;;;;;5023301;28;20299;-63
2024/03/01 01:07:48;;;;;;;12.88;8.70;;;9.70;99.90;;;;;;5021511;28;20222;-63
2024/03/01 01:10:15;;;;;;;12.50;8.73;;;9.70;99.90;;;;;;5023515;28;20212;-65
2024/03/01 01:12:41;;;;;;;13.52;8.55;;;9.70;99.90;;;;;;5023298;28;20635;-64
2024/03/01 01:15:07;;;;;;;13.50;8.48;;;9.70;99.90;;;;;;5023247;28;20274;-65
2024/03/01 01:17:33;;;;;;;14.57;8.15;;;9.70;99.90;;;;;;5022457;28;20267;-65
2024/03/01 01:19:59;;;;;;;11.98;7.82;;;9.70;99.90;;;;;;5022553;28;20310;-64
2024/03/01 01:22:26;;;;;;;14.75;8.75;;;9.70;99.90;;;;;;5023382;28;20652;-65
2024/03/01 01:24:52;;;;;;;13.73;8.40;;;9.80;99.90;;;;;;5022779;28;20191;-64
2024/03/01 01:27:18;;;;;;;15.70;9.38;;;9.70;99.90;;;;;;5022615;28;20279;-65
2024/03/01 01:29:44;;;;;;;11.45;8.73;;;9.70;99.90;;;;;;5037980;28;20993;-65
2024/03/01 01:32:10;;;;;;;12.02;8.77;;;9.70;99.90;;;;;;5037414;28;20191;-67
2024/03/01 01:34:36;;;;;;;14.13;7.80;;;9.70;99.90;;;;;;5023016;28;20234;-64
2024/03/01 01:37:03;;;;;;;12.60;7.93;;;9.70;99.90;;;;;;5020913;28;20654;-64
2024/03/01 01:39:29;;;;;;;11.05;7.70;;;9.70;99.90;;;;;;5022550;28;20702;-65
2024/03/01 01:41:55;;;;;;;12.27;7.63;;;9.70;99.90;;;;;;5022519;28;20675;-65
2024/03/01 01:44:21;;;;;;;13.75;7.78;;;9.70;99.90;;;;;;5037363;28;20192;-66
2024/03/01 01:46:51;;;;;;;11.25;7.53;;;9.80;99.90;;;;;;5022208;28;20858;-66
2024/03/01 01:49:19;;;;;;;10.95;8.52;;;9.80;99.90;;;;;;5021847;28;20357;-65
2024/03/01 01:51:48;;;;;;;12.38;8.20;;;9.80;99.90;;;;;;5022575;28;20843;-66
2024/03/01 01:54:15;;;;;;;10.82;7.18;;;9.80;99.90;;;;;;5022221;28;20648;-63
2024/03/01 01:56:42;;;;;;;12.75;7.35;;;9.80;99.90;;;;;;5022081;28;20187;-63
2024/03/01 01:59:10;;;;;;;12.95;8.25;;;9.80;99.90;;;;;;5021730;28;20389;-64
2024/03/01 02:01:36;;;;;;;12.73;7.65;;;9.80;99.90;;;;;;5020098;28;20903;-63
2024/03/01 02:04:02;;;;;;;10.70;7.55;;;9.80;99.90;;;;;;5022246;28;20223;-64
2024/03/01 02:06:28;;;;;;;12.05;8.38;;;9.80;99.90;;;;;;5022165;28;20785;-63
2024/03/01 02:08:54;;;;;;;10.40;7.10;;;9.80;99.90;;;;;;5037132;28;20230;-63
2024/03/01 02:11:20;;;;;;;10.75;7.38;;;9.80;99.90;;;;;;5021662;28;20192;-64
2024/03/01 02:13:46;;;;;;;10.40;7.60;;;9.80;99.90;;;;;;5033246;28;20188;-66
2024/03/01 02:16:12;;;;;;;11.82;7.63;;;9.90;99.90;;;;;;5021878;28;20192;-64
2024/03/01 02:18:37;;;;;;;13.35;7.82;;;9.80;99.90;;;;;;5021963;28;20571;-64
2024/03/01 02:21:07;;;;;;;11.75;7.57;;;9.80;99.90;;;;;;5021286;28;20199;-64
2024/03/01 02:23:33;;;;;;;11.77;7.70;;;9.80;99.90;;;;;;5021425;28;20208;-64
2024/03/01 02:25:59;;;;;;;11.60;7.68;;;9.80;99.90;;;;;;5021315;28;20257;-63
2024/03/01 02:28:25;;;;;;;12.98;7.70;;;9.80;99.90;;;;;;5021726;28;20219;-63
2024/03/01 02:30:51;;;;;;;10.02;7.40;;;9.80;99.90;;;;;;5036056;28;20194;-63
2024/03/01 02:33:18;;;;;;;13.27;7.50;;;9.80;99.90;;;;;;5020196;28;20278;-64
2024/03/01 02:35:45;;;;;;;14.80;8.20;;;9.90;99.90;;;;;;5021546;28;20279;-64
2024/03/01 02:38:11;;;;;;;13.75;7.80;;;9.90;99.90;;;;;;5021084;28;20290;-63
2024/03/01 02:40:37;;;;;;;14.50;7.47;;;9.90;99.90;;;;;;5021144;28;20287;-65
2024/03/01 02:43:02;;;;;;;14.07;7.93;;;9.90;99.90;;;;;;5021351;28;20299;-64
2024/03/01 02:45:28;;;;;;;11.18;7.40;;;9.90;99.90;;;;;;5021210;28;20974;-64
2024/03/01 02:47:54;;;;;;;13.05;7.97;;;9.90;99.90;;;;;;5035882;28;20238;-64
2024/03/01 02:50:20;;;;;;;12.43;7.65;;;9.90;99.90;;;;;;5032163;28;20215;-65
2024/03/01 02:52:46;;;;;;;12.95;7.63;;;9.80;99.90;;;;;;5020877;28;20354;-65
2024/03/01 02:55:19;;;;;;;11.77;7.63;;;9.80;99.90;;;;;;5019888;28;20206;-63
2024/03/01 02:57:55;;;;;;;10.80;8.20;;;9.80;99.90;;;;;;5021011;28;21058;-63
2024/03/01 03:00:22;;;;;;;12.15;8.02;;;9.80;99.90;;;;;;5021078;28;20195;-64
2024/03/01 03:02:48;;;;;;;12.82;8.50;;;9.80;99.90;;;;;;5019299;28;20184;-65
2024/03/01 03:05:13;;;;;;;13.32;8.05;;;9.80;99.90;;;;;;5021375;28;20597;-65
2024/03/01 03:07:39;;;;;;;12.07;7.35;;;9.80;99.90;;;;;;5035757;28;20208;-65
2024/03/01 03:10:06;;;;;;;12.02;8.05;;;9.80;99.90;;;;;;5021440;28;20229;-65
2024/03/01 03:12:32;;;;;;;12.13;8.05;;;9.80;99.90;;;;;;5035388;28;20184;-65
2024/03/01 03:15:00;;;;;;;11.95;7.97;;;9.80;99.90;;;;;;5020807;28;20904;-65
2024/03/01 03:17:27;;;;;;;17.30;8.32;;;9.80;99.90;;;;;;5020704;28;20590;-64
2024/03/01 03:19:53;;;;;;;14.27;7.93;;;9.70;99.90;;;;;;5034080;28;20178;-64
2024/03/01 03:22:19;;;;;;;11.85;8.32;;;9.70;99.90;;;;;;5020914;28;20192;-64
2024/03/01 03:24:45;;;;;;;12.32;8.27;;;9.60;99.90;;;;;;5021158;28;21532;-64
2024/03/01 03:27:12;;;;;;;13.15;8.40;;;9.60;99.90;;;;;;5021038;28;20192;-64
2024/03/01 03:29:38;;;;;;;12.90;8.75;;;9.50;99.90;;;;;;5020461;28;20207;-65
2024/03/01 03:32:04;;;;;;;12.85;8.18;;;9.40;99.90;;;;;;5020595;28;20238;-64
2024/03/01 03:34:29;;;;;;;15.32;9.02;;;9.40;99.90;;;;;;5020816;28;20184;-63
2024/03/01 03:36:56;;;;;;;12.50;8.50;;;9.30;99.90;;;;;;5035700;28;20664;-63
2024/03/01 03:39:22;;;;;;;13.07;8.52;;;9.40;99.90;;;;;;5020266;28;20203;-63
2024/03/01 03:41:47;;;;;;;11.77;8.38;;;9.30;99.90;;;;;;5020942;28;20199;-63
2024/03/01 03:44:13;;;;;;;16.02;9.00;;;9.30;99.90;;;;;;5020180;28;20710;-64
2024/03/01 03:46:39;;;;;;;14.35;9.02;;;9.30;99.90;;;;;;5020357;28;20224;-63
2024/03/01 03:49:08;;;;;;;13.90;9.60;;;9.30;99.90;;;;;;5032624;28;20212;-63
2024/03/01 03:51:35;;;;;;;14.25;9.30;;;9.30;99.90;;;;;;5020239;28;20192;-61
2024/03/01 03:54:04;;;;;;;13.00;9.00;;;9.30;99.90;;;;;;5020449;28;20195;-65
2024/03/01 03:56:31;;;;;;;13.45;9.10;;;9.30;99.90;;;;;;5034685;28;20188;-63
2024/03/01 03:58:57;;;;;;;15.30;9.55;;;9.20;99.90;;;;;;5018452;28;20258;-65
2024/03/01 04:01:23;;;;;;;15.45;9.27;;;9.20;99.90;;;;;;5020904;28;20561;-63
2024/03/01 04:03:49;;;;;;;17.58;9.45;;;9.10;99.90;;;;;;5019876;28;20295;-64
2024/03/01 04:06:16;;;;;;;15.40;10.00;;;9.10;99.90;;;;;;5019855;28;20192;-62
2024/03/01 04:08:41;;;;;;;15.80;9.90;;;9.00;99.90;;;;;;5019932;28;20211;-63
2024/03/01 04:11:08;;;;;;;14.65;10.10;;;9.00;99.90;;;;;;5022502;28;20195;-64
2024/03/01 04:13:38;;;;;;;16.48;10.38;;;8.90;99.90;;;;;;5023854;28;20232;-64
2024/03/01 04:16:07;;;;;;;17.40;10.75;;;8.90;99.90;;;;;;5023899;28;20786;-62
2024/03/01 04:18:33;;;;;;;17.02;10.57;;;8.90;99.90;;;;;;5024029;28;21229;-64
2024/03/01 04:21:00;;;;;;;16.25;10.65;;;8.80;99.90;;;;;;5009428;28;20277;-64
2024/03/01 04:23:26;;;;;;;15.82;10.48;;;8.80;99.90;;;;;;5023874;28;20226;-64
2024/03/01 04:25:53;;;;;;;16.00;11.40;;;8.80;99.90;;;;;;5023976;28;20207;-64
2024/03/01 04:28:26;;;;;;;16.45;11.05;;;8.80;99.90;;;;;;5024383;28;20247;-64
2024/03/01 04:30:52;;;;;;;14.85;9.95;;;8.80;99.90;;;;;;5023689;28;20222;-62
2024/03/01 04:33:18;;;;;;;16.15;11.30;;;8.80;99.90;;;;;;5023634;28;20184;-64
2024/03/01 04:35:44;;;;;;;18.10;11.30;;;8.90;99.90;;;;;;5021955;28;20250;-65
2024/03/01 04:38:10;;;;;;;15.98;10.50;;;8.90;99.90;;;;;;5023842;28;20192;-64
2024/03/01 04:40:40;;;;;;;19.58;11.15;;;8.90;99.90;;;;;;5023231;28;20612;-65
2024/03/01 04:43:07;;;;;;;18.15;11.15;;;9.00;99.90;;;;;;5024106;28;20290;-64
2024/03/01 04:45:33;;;;;;;15.10;10.82;;;9.00;99.90;;;;;;5023397;28;20273;-64
2024/03/01 04:47:59;;;;;;;18.13;11.40;;;9.00;99.90;;;;;;5023035;28;20231;-64
2024/03/01 04:50:28;;;;;;;20.73;11.82;;;9.00;99.90;;;;;;5023713;28;20188;-63
2024/03/01 04:52:54;;;;;;;17.65;11.35;;;9.00;99.90;;;;;;5038562;28;20582;-63
2024/03/01 04:55:20;;;;;;;18.08;11.43;;;9.10;99.90;;;;;;5038529;28;20209;-63
2024/03/01 04:57:46;;;;;;;19.25;12.88;;;9.10;99.90;;;;;;5022958;28;20491;-63
2024/03/01 05:00:12;;;;;;;18.52;11.90;;;9.10;99.90;;;;;;5023199;28;20655;-65
2024/03/01 05:02:41;;;;;;;21.05;12.68;;;9.10;99.90;;;;;;5022943;28;20176;-67
2024/03/01 05:05:08;;;;;;;20.70;11.40;;;9.10;99.90;;;;;;5022898;28;20279;-66
2024/03/01 05:07:34;;;;;;;18.00;12.20;;;9.10;99.90;;;;;;5022784;28;20735;-66
2024/03/01 05:10:00;;;;;;;19.10;12.10;;;9.10;99.90;;;;;;5023463;28;20180;-68
2024/03/01 05:12:25;;;;;;;24.17;11.82;;;9.10;99.90;;;;;;5022780;28;21156;-67
2024/03/01 05:14:51;;;;;;;18.75;12.02;;;9.20;99.90;;;;;;5023051;28;20198;-64
2024/03/01 05:17:17;;;;;;;19.05;12.13;;;9.20;99.90;;;;;;5022226;28;20195;-66
2024/03/01 05:19:46;;;;;;;17.55;12.13;;;9.20;99.90;;;;;;5020311;28;20204;-67
2024/03/01 05:22:12;;;;;;;18.20;11.75;;;9.20;99.90;;;;;;5022266;28;20274;-68
2024/03/01 05:24:39;;;;;;;17.23;11.90;;;9.20;99.90;;;;;;5021961;28;20651;-65
2024/03/01 05:27:11;;;;;;;17.27;11.93;;;9.30;99.90;;;;;;5022266;28;20202;-70
2024/03/01 05:29:37;;;;;;;18.58;12.60;;;9.30;99.90;;;;;;5022473;28;20219;-67
2024/03/01 05:32:02;;;;;;;17.70;12.18;;;9.20;99.90;;;;;;5036224;28;21103;-65
2024/03/01 05:34:28;;;;;;;18.20;11.43;;;9.30;99.90;;;;;;5023071;28;20262;-70
2024/03/01 05:36:54;;;;;;;17.55;11.75;;;9.30;99.90;;;;;;5022779;28;20188;-69
2024/03/01 05:39:19;;;;;;;18.35;12.65;;;9.30;99.90;;;;;;5021219;28;20196;-69
2024/03/01 05:41:45;;;;;;;18.95;12.30;;;9.40;99.90;;;;;;5037753;28;20242;-69
2024/03/01 05:44:13;;;;;;;20.75;12.63;;;9.40;99.90;;;;;;5037574;28;20203;-70
2024/03/01 05:46:40;;;;;;;19.50;13.07;;;9.40;99.90;;;;;;5037476;28;20223;-68
2024/03/01 05:49:06;;;;;;;19.95;12.77;;;9.50;99.90;;;;;;5022773;28;20240;-67
2024/03/01 05:51:31;;;;;;;21.70;12.88;;;9.50;99.90;;;;;;5022576;28;20215;-69
2024/03/01 05:53:57;;;;;;;18.17;12.20;;;9.50;99.90;;;;;;5037537;28;20238;-67
2024/03/01 05:56:26;;;;;;;19.40;13.10;;;9.50;99.90;;;;;;5022769;28;20231;-64
2024/03/01 05:58:52;;;;;;;18.65;12.75;;;9.60;99.90;;;;;;5021404;28;20240;-71
2024/03/01 06:01:18;;;;;;;20.77;12.82;;;9.60;99.90;;;;;;5021995;28;20199;-70
2024/03/01 06:03:44;;;;;;;20.25;12.70;;;9.60;99.90;;;;;;5021969;28;20262;-67
2024/03/01 06:06:14;;;;;;;20.10;12.68;;;9.60;99.90;;;;;;5022333;28;21627;-69
2024/03/01 06:08:40;;;;;;;20.48;13.38;;;9.60;99.90;;;;;;5036985;28;20211;-70
2024/03/01 06:11:07;;;;;;;21.15;13.60;;;9.70;99.90;;;;;;5021088;28;20538;-64
2024/03/01 06:13:33;;;;;;;17.80;12.23;;;9.70;99.90;;;;;;5008486;28;20238;-64
2024/03/01 06:15:59;;;;;;;19.95;13.25;;;9.70;99.90;;;;;;5037145;28;20192;-64
2024/03/01 06:18:25;;;;;;;19.60;12.48;;;9.70;99.90;;;;;;5008497;28;20579;-65
2024/03/01 06:20:50;;;;;;;19.30;14.23;;;9.80;99.90;;;;;;5022456;28;20202;-64
2024/03/01 06:23:17;;;;;;;20.70;14.15;;;9.80;99.90;;;;;;5021803;28;20192;-64
2024/03/01 06:25:43;;;;;;;20.25;14.82;;;9.80;99.90;;;;;;5037207;28;20196;-64
2024/03/01 06:28:09;;;;;;;22.55;14.75;;;9.80;99.90;;;;;;5021306;28;20212;-63
2024/03/01 06:30:35;;;;;;;20.30;14.30;;;9.80;99.90;;;;;;5021758;28;20279;-63
2024/03/01 06:33:01;;;;;;;19.60;14.18;;;9.80;99.90;;;;;;5021504;28;20795;-66
2024/03/01 06:35:27;;;;;;;22.88;14.52;;;9.90;99.90;;;;;;5020729;28;20196;-64
2024/03/01 06:37:52;;;;;;;20.92;14.70;;;9.90;99.90;;;;;;5021449;28;20200;-65
2024/03/01 06:40:18;;;;;;;22.77;14.52;;;9.90;99.90;;;;;;5021325;28;20197;-64
2024/03/01 06:42:44;;;;;;;22.40;14.65;;;9.90;99.90;;;;;;5005915;28;21077;-64
2024/03/01 06:45:10;;;;;;;20.50;14.73;;;9.90;99.90;;;;;;5021472;28;20200;-64
2024/03/01 06:47:36;;;;;;;23.20;14.70;;;9.90;99.90;;;;;;5019902;28;20711;-65
2024/03/01 06:50:03;;;;;;;22.63;14.52;;;9.90;99.90;;;;;;5007766;28;20275;-63
2024/03/01 06:52:28;;;;;;;21.40;14.35;;;9.90;99.90;;;;;;5036944;28;20200;-63
2024/03/01 06:54:54;;;;;;;19.83;13.93;;;9.90;99.90;;;;;;5019468;28;20203;-72
2024/03/01 06:57:20;;;;;;;20.48;14.30;;;10.00;99.90;;;;;;5020417;28;20199;-63
2024/03/01 06:59:46;;;;;;;21.65;14.07;;;10.00;99.90;;;;;;5021044;28;20682;-64
2024/03/01 07:02:11;;;;;;;20.60;13.57;;;10.00;99.90;;;;;;5021599;28;20246;-65
2024/03/01 07:04:37;;;;;;;22.10;14.32;;;10.00;99.90;;;;;;5006034;28;20199;-65
2024/03/01 07:07:03;;;;;;;20.73;13.98;;;10.00;99.90;;;;;;5021124;28;20253;-64
2024/03/01 07:09:32;;;;;;;20.98;14.05;;;10.00;99.90;;;;;;5020964;28;20865;-65
2024/03/01 07:11:58;;;;;;;22.50;14.20;;;10.00;99.90;;;;;;5020760;28;20184;-64
2024/03/01 07:14:23;;;;;;;21.58;13.77;;;10.00;99.90;;;;;;5021833;28;20191;-64
2024/03/01 07:16:49;;;;;;;19.73;13.48;;;10.00;99.90;;;;;;5021358;28;20565;-65
2024/03/01 07:19:15;;;;;;;22.38;14.55;;;10.00;99.90;;;;;;5021359;28;20198;-64
2024/03/01 07:21:41;;;;;;;18.70;13.20;;;9.90;99.90;;;;;;5020898;28;20211;-65
2024/03/01 07:24:07;;;;;;;17.77;12.52;;;10.00;99.90;;;;;;5035808;28;20199;-66
2024/03/01 07:26:32;;;;;;;18.40;12.13;;;9.90;99.90;;;;;;5021519;28;20199;-65
2024/03/01 07:28:58;;;;;;;14.23;10.30;;;9.90;99.90;;;;;;5021439;28;20238;-64
2024/03/01 07:31:24;;;;;;;9.95;8.00;;;9.90;99.90;;;;;;5020738;28;20191;-66
2024/03/01 07:33:50;;;;;;;8.90;5.22;;;9.90;99.90;;;;;;5020724;28;20192;-66
2024/03/01 07:36:15;;;;;;;6.32;4.20;;;9.80;99.90;;;;;;5020919;28;20704;-65
2024/03/01 07:38:41;;;;;;;3.10;2.50;;;9.70;99.90;;;;;;5021052;28;20199;-65
2024/03/01 07:41:07;;;;;;;3.15;2.10;;;9.60;99.90;;;;;;5036204;28;20196;-65
2024/03/01 07:43:33;;;;;;;2.63;2.10;;;9.50;99.90;;;;;;5020797;28;21237;-66
2024/03/01 07:45:59;;;;;;;8.82;2.33;;;9.40;99.90;;;;;;5019982;28;20202;-65
2024/03/01 07:48:25;;;;;;;3.22;2.40;;;9.40;99.90;;;;;;5035793;28;20211;-66
2024/03/01 07:50:50;;;;;;;2.90;2.20;;;9.20;99.90;;;;;;5019664;28;20187;-65
2024/03/01 07:53:16;;;;;;;3.75;2.13;;;9.10;99.90;;;;;;5036200;28;20206;-64
2024/03/01 07:55:42;;;;;;;5.63;2.10;;;9.00;99.90;;;;;;5020592;28;20194;-64
2024/03/01 07:58:08;;;;;;;3.88;1.90;;;8.90;99.90;;;;;;5020389;28;20573;-63
2024/03/01 08:00:34;;;;;;;4.45;2.20;;;8.80;99.90;;;;;;5020254;28;20589;-64
2024/03/01 08:03:10;;;;;;;3.28;1.77;;;8.80;99.90;;;;;;5020447;28;20188;-65
2024/03/01 08:05:40;;;;;;;3.13;1.50;;;8.70;99.90;;;;;;5020434;28;20186;-65
2024/03/01 08:08:08;;;;;;;2.40;1.70;;;8.70;99.90;;;;;;5020671;28;20535;-65
2024/03/01 08:10:34;;;;;;;3.38;1.63;;;8.70;99.90;;;;;;5020344;28;20292;-65
2024/03/01 08:13:03;;;;;;;2.80;1.30;;;8.70;99.90;;;;;;5032490;28;20191;-65
2024/03/01 08:15:35;;;;;;;5.28;1.20;;;8.70;99.90;;;;;;5020317;28;20220;-65
2024/03/01 08:18:14;;;;;;;4.35;1.60;;;8.60;99.90;;;;;;5020529;28;20310;-65
2024/03/01 08:21:05;;;;;;;3.97;1.45;;;8.60;99.90;;;;;;5020186;28;20195;-64
2024/03/01 08:23:39;;;;;;;6.05;2.05;;;8.60;99.90;;;;;;5019757;28;20195;-64
2024/03/01 08:26:12;;;;;;;5.82;2.05;;;8.60;99.90;;;;;;5019553;28;20200;-65
2024/03/01 08:28:42;;;;;;;4.20;2.28;;;8.60;99.90;;;;;;5034793;28;20200;-65
2024/03/01 08:31:30;;;;;;;4.47;2.33;;;8.70;99.90;;;;;;5020224;28;20192;-64
2024/03/01 08:34:17;;;;;;;5.35;2.20;;;8.70;99.90;;;;;;5019715;28;20184;-64
2024/03/01 08:36:44;;;;;;;7.30;2.40;;;8.80;99.90;;;;;;5020158;28;20291;-65
2024/03/01 08:39:18;;;;;;;3.35;2.38;;;8.80;99.90;;;;;;5019485;28;20240;-64
2024/03/01 08:41:48;;;;;;;11.02;2.63;;;8.80;99.90;;;;;;5019942;28;20196;-65
2024/03/01 08:44:23;;;;;;;6.45;2.15;;;8.70;99.90;;;;;;5020315;28;20191;-67
2024/03/01 08:46:49;;;;;;;4.53;1.88;;;8.70;99.90;;;;;;5019723;28;20732;-64
2024/03/01 08:49:53;;;;;;;5.72;1.90;;;8.70;99.90;;;;;;5019982;28;20219;-65
2024/03/01 08:52:37;;;;;;;5.88;2.00;;;8.60;99.90;;;;;;5019909;28;20183;-65
2024/03/01 08:55:09;;;;;;;5.45;2.00;;;8.60;99.90;;;;;;5020018;28;20250;-65
2024/03/01 08:57:38;;;;;;;10.05;2.22;;;8.60;99.90;;;;;;5020024;28;20223;-66
2024/03/01 09:00:27;;;;;;;5.97;1.90;;;8.70;99.90;;;;;;5023410;28;20234;-66
2024/03/01 09:02:53;;;;;;;4.15;1.88;;;8.80;99.90;;;;;;5023059;28;20195;-65
2024/03/01 09:05:21;;;;;;;6.50;1.92;;;8.90;99.90;;;;;;5023552;28;20321;-64
2024/03/01 09:07:49;;;;;;;4.50;1.70;;;9.00;99.90;;;;;;5023400;28;20263;-65
2024/03/01 09:10:37;;;;;;;4.60;2.10;;;9.10;99.90;;;;;;5023338;28;20184;-65
2024/03/01 09:13:04;;;;;;;5.80;1.90;;;9.20;99.90;;;;;;5020175;28;20719;-64
2024/03/01 09:15:39;;;;;;;4.57;1.80;;;9.30;99.90;;;;;;5023210;28;20176;-61
2024/03/01 09:18:17;;;;;;;5.53;2.20;;;9.40;99.90;;;;;;5036724;28;20698;-63
2024/03/01 09:20:44;;;;;;;5.38;2.00;;;9.60;99.90;;;;;;5023110;28;20233;-64
2024/03/01 09:23:13;;;;;;;6.28;1.90;;;9.60;99.90;;;;;;5023467;28;20199;-65
2024/03/01 09:25:48;;;;;;;3.13;1.65;;;9.70;99.90;;;;;;5022511;28;20221;-65
2024/03/01 09:28:20;;;;;;;4.00;1.90;;;9.90;99.90;;;;;;5022876;28;20706;-65
2024/03/01 09:30:47;;;;;;;6.88;2.20;;;9.90;99.90;;;;;;5022675;28;20184;-66
2024/03/01 09:33:15;;;;;;;6.22;2.05;;;9.90;99.90;;;;;;5022733;28;20609;-64
2024/03/01 09:35:42;;;;;;;5.20;3.00;;;9.90;99.90;;;;;;5022256;28;20625;-64
2024/03/01 09:38:11;;;;;;;7.00;2.78;;;10.00;99.90;;;;;;5022270;28;20230;-64
2024/03/01 09:40:49;;;;;;;7.78;3.17;;;10.10;99.90;;;;;;5021151;28;20230;-64
2024/03/01 09:43:34;;;;;;;5.60;2.10;;;10.10;99.90;;;;;;5022508;28;20215;-64
2024/03/01 09:46:24;;;;;;;5.05;2.33;;;10.10;99.90;;;;;;5022593;28;20184;-65
2024/03/01 09:48:50;;;;;;;5.40;2.15;;;10.10;99.90;;;;;;5022755;28;20626;-64
2024/03/01 09:51:23;;;;;;;2.90;1.73;;;10.10;99.90;;;;;;5022288;28;20207;-65
2024/03/01 09:53:57;;;;;;;3.75;1.50;;;10.20;99.90;;;;;;5022413;28;20191;-64
2024/03/01 09:56:32;;;;;;;2.95;1.45;;;10.20;99.90;;;;;;5022202;28;20183;-66
2024/03/01 09:59:20;;;;;;;4.57;1.40;;;10.20;99.90;;;;;;5022254;28;20218;-67
2024/03/01 10:01:58;;;;;;;4.55;2.53;;;10.20;99.90;;;;;;5022186;28;20627;-66
2024/03/01 10:05:04;;;;;;;4.95;2.78;;;10.20;99.90;;;;;;5022436;28;20192;-67
2024/03/01 10:07:42;;;;;;;5.28;3.13;;;10.20;99.90;;;;;;5022814;28;20196;-67
2024/03/01 10:10:14;;;;;;;11.38;4.13;;;10.30;99.90;;;;;;5022374;28;20716;-65
2024/03/01 10:13:06;;;;;;;6.10;3.08;;;10.30;99.90;;;;;;5021858;28;20921;-67
2024/03/01 10:15:57;;;;;;;7.00;2.78;;;10.30;99.90;;;;;;5021822;28;20192;-66
2024/03/01 10:18:58;;;;;;;6.00;2.60;;;10.30;99.90;;;;;;5022179;28;20715;-65
2024/03/01 10:21:35;;;;;;;3.50;2.40;;;10.40;99.90;;;;;;5011085;28;20206;-66
2024/03/01 10:24:25;;;;;;;4.97;2.80;;;10.50;99.90;;;;;;5021788;28;20204;-66
2024/03/01 10:27:07;;;;;;;3.92;2.22;;;10.60;99.90;;;;;;5021369;28;20723;-65
2024/03/01 10:29:36;;;;;;;12.43;2.40;;;10.70;99.90;;;;;;5021677;28;20224;-67
2024/03/01 10:32:29;;;;;;;5.50;2.55;;;10.70;99.90;;;;;;5034274;28;20195;-66
2024/03/01 10:35:11;;;;;;;8.32;2.10;;;10.70;99.90;;;;;;5021569;28;20725;-64
2024/03/01 10:37:40;;;;;;;5.75;2.20;;;10.80;99.90;;;;;;5021534;28;20199;-65
2024/03/01 10:40:14;;;;;;;5.35;3.85;;;10.80;99.90;;;;;;5032368;28;20191;-67
2024/03/01 10:42:43;;;;;;;3.95;2.20;;;10.80;99.90;;;;;;5021300;28;20385;-66
2024/03/01 10:45:23;;;;;;;6.43;2.38;;;10.80;99.90;;;;;;5018898;28;20230;-67
2024/03/01 10:47:50;;;;;;;6.82;1.85;;;10.80;99.90;;;;;;5021503;28;20306;-67
2024/03/01 10:50:28;;;;;;;3.30;1.80;;;10.70;99.90;;;;;;5021156;28;20286;-67
2024/03/01 10:53:05;;;;;;;3.72;2.40;;;10.70;99.90;;;;;;5014887;28;20230;-66
2024/03/01 10:55:34;;;;;;;3.92;2.17;;;10.70;99.90;;;;;;5021580;28;20620;-66
2024/03/01 10:58:09;;;;;;;3.88;1.90;;;10.60;99.90;;;;;;5020998;28;20195;-66
2024/03/01 11:00:53;;;;;;;4.05;1.98;;;10.70;99.90;;;;;;5020817;28;20179;-66
2024/03/01 11:03:54;;;;;;;6.18;2.17;;;10.80;99.90;;;;;;5020656;28;20200;-64
2024/03/01 11:06:26;;;;;;;4.90;2.08;;;10.80;99.90;;;;;;5020963;28;20298;-66
2024/03/01 11:09:01;;;;;;;4.13;2.00;;;10.90;99.90;;;;;;5020818;28;20544;-64
2024/03/01 11:11:55;;;;;;;4.32;1.70;;;10.90;99.90;;;;;;5020642;28;20188;-65
2024/03/01 11:14:23;;;;;;;5.30;2.30;;;10.90;99.90;;;;;;5035506;28;20192;-66
2024/03/01 11:16:53;;;;;;;4.22;2.50;;;10.90;99.90;;;;;;5020787;28;20662;-64
2024/03/01 11:19:29;;;;;;;7.53;3.72;;;11.00;99.90;;;;;;5020871;28;20230;-64
2024/03/01 11:22:14;;;;;;;8.75;3.83;;;11.00;99.90;;;;;;5020365;28;20727;-72
2024/03/01 11:24:46;;;;;;;8.23;2.78;;;11.00;99.90;;;;;;5020276;28;20210;-64
2024/03/01 11:27:20;;;;;;;6.80;2.90;;;11.10;99.90;;;;;;5035007;28;20199;-63
2024/03/01 11:29:52;;;;;;;6.50;2.58;;;11.10;99.90;;;;;;5020648;28;20215;-64
2024/03/01 11:32:24;;;;;;;4.85;2.55;;;11.00;99.90;;;;;;5020573;28;20212;-66
2024/03/01 11:35:11;;;;;;;7.95;2.53;;;11.00;99.90;;;;;;5020626;28;20267;-64
2024/03/01 11:37:57;;;;;;;6.65;2.60;;;10.90;99.90;;;;;;5020506;28;20274;-66
2024/03/01 11:40:51;;;;;;;7.07;2.42;;;10.90;99.90;;;;;;5020866;28;20206;-65
2024/03/01 11:43:32;;;;;;;6.88;2.90;;;11.00;99.90;;;;;;5019949;28;20176;-65
2024/03/01 11:46:19;;;;;;;6.82;3.15;;;11.10;99.90;;;;;;5020017;28;20176;-66
2024/03/01 11:49:01;;;;;;;6.35;2.78;;;11.10;99.90;;;;;;5020544;28;20260;-65
2024/03/01 11:51:42;;;;;;;7.03;2.65;;;11.20;99.90;;;;;;5020314;28;20238;-65
2024/03/01 11:54:31;;;;;;;9.32;2.80;;;11.20;99.90;;;;;;5018834;28;20192;-62
2024/03/01 11:57:15;;;;;;;5.97;2.60;;;11.10;99.90;;;;;;5020668;28;20307;-66
2024/03/01 11:59:53;;;;;;;8.82;3.55;;;11.10;99.90;;;;;;5019840;28;20872;-65
2024/03/01 12:02:54;;;;;;;12.43;3.60;;;11.10;99.90;;;;;;5019753;28;20601;-66
2024/03/01 12:05:30;;;;;;;13.10;3.20;;;11.10;99.90;;;;;;5020366;28;20643;-65
2024/03/01 12:08:18;;;;;;;5.95;3.17;;;11.10;99.90;;;;;;5020420;28;20245;-65
2024/03/01 12:11:14;;;;;;;6.97;2.90;;;11.10;99.90;;;;;;5020147;28;20214;-67
2024/03/01 12:13:49;;;;;;;10.95;3.30;;;11.10;99.90;;;;;;5019264;28;20691;-65
2024/03/01 12:16:33;;;;;;;5.50;3.20;;;11.10;99.90;;;;;;5019597;28;20252;-65
2024/03/01 12:19:10;;;;;;;7.20;3.30;;;11.20;99.90;;;;;;5035092;28;20196;-65
2024/03/01 12:21:42;;;;;;;6.78;3.45;;;11.20;99.90;;;;;;5018243;28;20196;-65
2024/03/01 12:24:17;;;;;;;6.63;3.22;;;11.20;99.90;;;;;;5019608;28;20195;-66
2024/03/01 12:27:04;;;;;;;10.75;5.07;;;11.20;99.90;;;;;;5019579;28;20243;-63
2024/03/01 12:29:50;;;;;;;10.32;4.20;;;11.20;99.90;;;;;;5019845;28;20320;-65
2024/03/01 12:32:22;;;;;;;7.88;3.40;;;11.20;99.90;;;;;;5020822;28;20227;-66
2024/03/01 12:35:02;;;;;;;9.98;4.72;;;11.30;99.90;;;;;;5022950;28;20210;-65
2024/03/01 12:37:39;;;;;;;8.07;3.40;;;11.30;99.90;;;;;;5023600;28;20210;-63
2024/03/01 12:40:16;;;;;;;8.43;3.40;;;11.30;99.90;;;;;;5023539;28;20192;-66
2024/03/01 12:43:24;;;;;;;6.47;2.58;;;11.20;99.90;;;;;;5023622;28;20175;-66
2024/03/01 12:46:12;;;;;;;7.97;3.20;;;11.20;99.90;;;;;;5017598;28;20200;-66
2024/03/01 12:49:11;;;;;;;6.90;3.13;;;11.20;99.90;;;;;;5023489;28;20215;-65
2024/03/01 12:52:05;;;;;;;4.97;3.28;;;11.20;99.90;;;;;;5023369;28;20253;-64
2024/03/01 12:54:45;;;;;;;5.72;3.08;;;11.30;99.90;;;;;;5021853;28;20192;-65
2024/03/01 12:57:21;;;;;;;9.90;3.85;;;11.20;99.90;;;;;;5022514;28;20222;-66
2024/03/01 13:00:13;;;;;;;5.13;2.63;;;11.20;99.90;;;;;;5022768;28;20670;-67
2024/03/01 13:03:11;;;;;;;8.38;2.70;;;11.20;99.90;;;;;;5023755;28;20210;-65
2024/03/01 13:05:37;;;;;;;6.55;3.05;;;11.30;99.90;;;;;;5023122;28;20199;-65